Waterbury, CT

2:50 PM EST on December 21, 2014 (GMT -0500)
Hartford-brainard | Change Station
CLOSE
Current Station
Airport
Location: Hartford,
Elevation: 16 ft
Nearby Weather Stations
Active Advisory: Special Statement

Elev 16 ft 41.74 °N, 72.65 °W | Updated 57 minutes ago

Overcast
Overcast
33 °F
Feels Like 27 °F
N
7
Wind Variable Wind from NNE

Today
High -- | Low -- °F
--% Chance of Precip.
Yesterday
High -- | Low -- °F
Precip. -- in
7:15 AM 4:25 PM
Waning Crescent, 0% visible
Pressure 30.29 in
Visibility 6.0 miles
Clouds Overcast 900 ft
Windchill 27 °F
Dew Point 30 °F
Humidity 89%
Rainfall 0.02 in
Snow Depth Not available.
UV 0 out of 12
Pollen .10 out of 12
Air Quality Not available.
Flu Activity Not available.
METAR KHFD 211853Z 02006KT 6SM BR OVC009 01/M01 A3029 RMK AO2 SNE27 CIG 007V011 SLP257 P0000 T00061011

More Conditions Fewer Conditions

Pressure 30.29 in
Visibility 6.0 miles
Clouds Overcast 900 ft
Windchill 27 °F
Dew Point 30 °F
Humidity 89%
Rainfall 0.02 in
Snow Depth Not available.
UV 0 out of 12
Pollen .10 out of 12
Air Quality Not available.
Flu Activity Not available.
METAR KHFD 211853Z 02006KT 6SM BR OVC009 01/M01 A3029 RMK AO2 SNE27 CIG 007V011 SLP257 P0000 T00061011

More Conditions Fewer Conditions

10-Day Weather Forecast

Almanac

Astronomy

Dec. 21, 2014 Rise Set
Actual Time
Civil Twilight
Nautical Twilight
Astronomical Twilight
Moon
Length of Visible Light
Length of Day
Tomorrow will be .
, % of the Moon is Illuminated

Today's Extremes

State Highs State Lows

Community

WunderPhotos

Upload Photos

1,779,469 photos uploaded!

WunderBlogs® & News

Nearby

Air Quality

  Air Quality AQ Index Pollutant
Not available.

Snow Depth

Station Depth Elevation

Earthquake Activity

City Distance Mag. Time & Date
Minimum magnitude displayed is 2.5.

Coastal Water Temperatures

Place Temperature

Nearby Weather Stations